UAL20Z CYXU-KBOS
Flight info
| Callsign | UAL20Z |
|---|---|
| Flight time | N/A |
| Altitude | 37000 |
| Route | CYXU2/15 DCT DERLO Q818 WOZEE Q935 PONCT JFUND2 |
| Aircraft | B738/M-SDE2E3FGHIRWXY/LB1 |
Departure
| Time | 2026-04-27 23:55 |
|---|---|
| Airport | London International Airport (CYXU) |
Arrival
| Time | N/A |
|---|---|
| Airport | Boston Logan International Airport (KBOS) |
| Time | Latitude | Longitude | Altitude | Speed | Heading |
|---|---|---|---|---|---|
| 2026-04-27 23:33 | 43.02991 | -81.14952 | 903 ft | 0 kts | 227° |
| 2026-04-27 23:45 | 43.02990 | -81.14952 | 903 ft | 0 kts | 227° |
| 2026-04-27 23:46 | 43.02988 | -81.14955 | 903 ft | 0 kts | 227° |
| 2026-04-27 23:46 | 43.02991 | -81.14952 | 903 ft | 2 kts | 227° |
| 2026-04-27 23:46 | 43.03007 | -81.14927 | 903 ft | 2 kts | 228° |
| 2026-04-27 23:47 | 43.03016 | -81.14910 | 903 ft | 2 kts | 249° |
| 2026-04-27 23:47 | 43.03019 | -81.14891 | 903 ft | 2 kts | 264° |
| 2026-04-27 23:47 | 43.03019 | -81.14871 | 903 ft | 2 kts | 280° |
| 2026-04-27 23:47 | 43.03017 | -81.14861 | 903 ft | 1 kts | 286° |
| 2026-04-27 23:48 | 43.03017 | -81.14859 | 903 ft | 0 kts | 285° |
| 2026-04-27 23:50 | 43.03017 | -81.14863 | 903 ft | 1 kts | 285° |
| 2026-04-27 23:50 | 43.03019 | -81.14870 | 903 ft | 0 kts | 287° |
| 2026-04-27 23:50 | 43.03037 | -81.14889 | 903 ft | 8 kts | 319° |
| 2026-04-27 23:50 | 43.03110 | -81.14973 | 903 ft | 18 kts | 319° |
| 2026-04-27 23:51 | 43.03234 | -81.15118 | 906 ft | 27 kts | 318° |
| 2026-04-27 23:51 | 43.03379 | -81.15324 | 907 ft | 23 kts | 321° |
| 2026-04-27 23:51 | 43.03445 | -81.15380 | 909 ft | 13 kts | 318° |
| 2026-04-27 23:51 | 43.03537 | -81.15493 | 910 ft | 22 kts | 318° |
| 2026-04-27 23:52 | 43.03658 | -81.15637 | 913 ft | 22 kts | 319° |
| 2026-04-27 23:52 | 43.03779 | -81.15779 | 911 ft | 23 kts | 320° |
| 2026-04-27 23:52 | 43.03902 | -81.15932 | 910 ft | 24 kts | 316° |
| 2026-04-27 23:52 | 43.04048 | -81.16003 | 910 ft | 21 kts | 360° |
| 2026-04-27 23:53 | 43.04125 | -81.15884 | 912 ft | 17 kts | 127° |
| 2026-04-27 23:53 | 43.04060 | -81.15800 | 913 ft | 0 kts | 138° |
| 2026-04-27 23:54 | 43.04055 | -81.15794 | 913 ft | 4 kts | 138° |
| 2026-04-27 23:55 | 43.03907 | -81.15612 | 913 ft | 54 kts | 139° |
| 2026-04-27 23:55 | 43.03530 | -81.15165 | 911 ft | 86 kts | 138° |
| 2026-04-27 23:55 | 43.02884 | -81.14390 | 933 ft | 163 kts | 139° |
| 2026-04-27 23:55 | 43.01940 | -81.13251 | 1581 ft | 197 kts | 139° |
| 2026-04-27 23:56 | 43.00902 | -81.11995 | 2454 ft | 194 kts | 139° |
| 2026-04-27 23:56 | 42.99948 | -81.10825 | 3016 ft | 184 kts | 141° |
| 2026-04-27 23:56 | 42.98931 | -81.09666 | 3210 ft | 193 kts | 142° |
| 2026-04-27 23:56 | 42.97913 | -81.08498 | 3541 ft | 193 kts | 142° |
| 2026-04-27 23:57 | 42.96885 | -81.07290 | 3761 ft | 200 kts | 142° |
| 2026-04-27 23:57 | 42.95783 | -81.05994 | 4014 ft | 209 kts | 142° |
| 2026-04-27 23:57 | 42.94674 | -81.04678 | 4047 ft | 211 kts | 142° |
| 2026-04-27 23:57 | 42.93570 | -81.03366 | 4065 ft | 213 kts | 142° |
| 2026-04-27 23:58 | 42.92444 | -81.02031 | 4053 ft | 221 kts | 141° |
| 2026-04-27 23:58 | 42.91615 | -81.01054 | 4198 ft | 245 kts | 141° |
| 2026-04-27 23:58 | 42.89936 | -80.99058 | 5748 ft | 244 kts | 142° |
| 2026-04-27 23:58 | 42.88670 | -80.97555 | 6799 ft | 248 kts | 143° |
| 2026-04-27 23:59 | 42.87370 | -80.96015 | 7789 ft | 252 kts | 143° |
| 2026-04-27 23:59 | 42.86045 | -80.94445 | 8733 ft | 258 kts | 143° |
| 2026-04-27 23:59 | 42.84701 | -80.92851 | 9712 ft | 261 kts | 143° |
| 2026-04-27 23:59 | 42.83332 | -80.91228 | 10554 ft | 267 kts | 143° |
| 2026-04-28 00:00 | 42.81927 | -80.89563 | 10955 ft | 271 kts | 143° |
| 2026-04-28 00:00 | 42.80517 | -80.87888 | 11032 ft | 272 kts | 143° |
| 2026-04-28 00:00 | 42.79060 | -80.86224 | 11046 ft | 269 kts | 143° |
| 2026-04-28 00:00 | 42.77747 | -80.84415 | 11048 ft | 274 kts | 135° |
| 2026-04-28 00:01 | 42.76658 | -80.82272 | 11034 ft | 276 kts | 125° |
| 2026-04-28 00:01 | 42.75860 | -80.79890 | 11031 ft | 281 kts | 115° |
| 2026-04-28 00:01 | 42.75362 | -80.77274 | 11038 ft | 286 kts | 104° |
| 2026-04-28 00:01 | 42.75198 | -80.74580 | 11035 ft | 292 kts | 95° |
| 2026-04-28 00:02 | 42.75369 | -80.71833 | 11052 ft | 297 kts | 85° |
| 2026-04-28 00:02 | 42.75835 | -80.69089 | 11057 ft | 300 kts | 77° |
| 2026-04-28 00:02 | 42.76749 | -80.66502 | 11052 ft | 305 kts | 58° |
| 2026-04-28 00:02 | 42.78099 | -80.64257 | 11051 ft | 308 kts | 51° |
| 2026-04-28 00:03 | 42.79289 | -80.62450 | 11059 ft | 307 kts | 50° |
| 2026-04-28 00:03 | 42.80715 | -80.60274 | 11055 ft | 310 kts | 50° |
| 2026-04-28 00:03 | 42.82126 | -80.58111 | 11047 ft | 307 kts | 50° |
| 2026-04-28 00:03 | 42.83543 | -80.55943 | 11065 ft | 308 kts | 50° |
| 2026-04-28 00:04 | 42.84965 | -80.53766 | 11066 ft | 310 kts | 50° |
| 2026-04-28 00:04 | 42.87826 | -80.49371 | 11057 ft | 308 kts | 51° |
| 2026-04-28 00:04 | 42.89226 | -80.47218 | 11060 ft | 309 kts | 50° |
| 2026-04-28 00:05 | 42.90663 | -80.45004 | 11059 ft | 308 kts | 51° |
| 2026-04-28 00:05 | 42.92080 | -80.42828 | 11063 ft | 308 kts | 50° |
| 2026-04-28 00:05 | 42.93499 | -80.40646 | 11071 ft | 311 kts | 50° |
| 2026-04-28 00:05 | 42.94970 | -80.38371 | 11573 ft | 327 kts | 50° |
| 2026-04-28 00:06 | 42.96448 | -80.36065 | 12532 ft | 326 kts | 50° |
| 2026-04-28 00:06 | 42.97924 | -80.33734 | 13379 ft | 329 kts | 50° |
| 2026-04-28 00:06 | 42.99412 | -80.31358 | 14202 ft | 332 kts | 51° |
| 2026-04-28 00:06 | 43.00898 | -80.28964 | 14994 ft | 335 kts | 51° |
| 2026-04-28 00:07 | 43.02405 | -80.26531 | 15830 ft | 335 kts | 50° |
| 2026-04-28 00:07 | 43.03899 | -80.24110 | 16624 ft | 336 kts | 50° |
| 2026-04-28 00:07 | 43.05407 | -80.21658 | 17270 ft | 341 kts | 50° |
| 2026-04-28 00:07 | 43.06942 | -80.19164 | 17958 ft | 344 kts | 50° |
| 2026-04-28 00:08 | 43.08353 | -80.16592 | 18613 ft | 346 kts | 61° |
| 2026-04-28 00:08 | 43.09004 | -80.13428 | 19146 ft | 348 kts | 88° |
| 2026-04-28 00:08 | 43.08658 | -80.10214 | 19680 ft | 348 kts | 108° |
| 2026-04-28 00:08 | 43.07874 | -80.07063 | 20224 ft | 352 kts | 112° |
| 2026-04-28 00:09 | 43.07007 | -80.03941 | 20694 ft | 358 kts | 113° |
| 2026-04-28 00:09 | 43.06099 | -80.00719 | 21178 ft | 363 kts | 113° |
| 2026-04-28 00:09 | 43.05193 | -79.97507 | 21673 ft | 367 kts | 113° |
| 2026-04-28 00:09 | 43.04264 | -79.94229 | 22097 ft | 373 kts | 113° |
| 2026-04-28 00:10 | 43.03327 | -79.90932 | 22501 ft | 378 kts | 113° |
| 2026-04-28 00:10 | 43.02369 | -79.87561 | 22974 ft | 382 kts | 113° |
| 2026-04-28 00:10 | 43.01402 | -79.84169 | 23365 ft | 387 kts | 113° |
| 2026-04-28 00:10 | 43.00425 | -79.80736 | 23824 ft | 390 kts | 112° |
| 2026-04-28 00:11 | 42.99440 | -79.77296 | 24308 ft | 392 kts | 113° |
| 2026-04-28 00:11 | 42.98432 | -79.73805 | 24721 ft | 395 kts | 112° |
| 2026-04-28 00:11 | 42.97422 | -79.70338 | 25139 ft | 398 kts | 113° |